Terminal Aerodrome Forecast
Issued by NWS

Home | Current Version | Previous Version | Text Only | Print | Product List | Glossary Off
Versions: 1 2 3 4 5 6 7 8 9 10 11 12 13 14

952
FTUS43 KTOP 212334
TAFFOE
TAF
KFOE 212334Z 2200/2224 34009KT P6SM VCSH OVC060
     FM220600 01006KT P6SM VCSH OVC050
     FM221300 03008KT P6SM OVC025=

USA.gov is the U.S. government's official web portal to all federal, state and local government web resources and services.